»·PEaware :: DCM180 KPRC-KPSP

DCM180 :: KPRC-KPSP

FLIGHT INFORMATION

Flight Status: Arrived
Operator:
DotCom
More flights by this operator :: More flights under this callsign
Pilot: Etienne B. (28927)
Aircraft: AIRBUS A320
(A320)
More flights by this aircraft type
Origin: KPRC Love
United States
Destination: KPSP Palm Springs Intl
United States
More flights between these airports :: More routes between these airports
Route: +WNSKI2 MUMTE EED CLOWD1
File this flight plan on PilotEdge
Remarks: RMK / SIMBRIEF
Altitude:
(Current/Filed)
36,000ft
Speed:
(Current/Filed)
453kts
Departed: 26-Apr-20 03:45 PM
Arrived: 26-Apr-20 04:32 PM
Distance/Time
Traveled:
209nm/0:47
Distance/Time
To Go:
Arrived

Flight Plot

Page will automatically refresh every two minutes.

Flight plan parsing failed; only flown route is shown


Map Options




Map Legend


Flown Route
Filed Route
Departure Airport
Arrival Airport
Navaid (VOR, NDB)
Fix

Horizontal Profiles

Position Reports

Time Latitude Longitude Heading Altitude Ground
Speed
26-Apr-20 15:25 34.649526 -112.426757 154 5021ft 0kts
26-Apr-20 15:26 34.649526 -112.426757 154 5021ft 0kts
26-Apr-20 15:27 34.649526 -112.426757 154 5021ft 0kts
26-Apr-20 15:28 34.649526 -112.426757 154 5021ft 0kts
26-Apr-20 15:29 34.649526 -112.426757 154 5021ft 0kts
26-Apr-20 15:30 34.649526 -112.426757 154 5021ft 0kts
26-Apr-20 15:31 34.649526 -112.426757 154 5021ft 0kts
26-Apr-20 15:33 34.649526 -112.426757 154 5021ft 0kts
26-Apr-20 15:34 34.649526 -112.426757 154 5021ft 0kts
26-Apr-20 15:35 34.649526 -112.426757 154 5021ft 0kts
26-Apr-20 15:36 34.649526 -112.426757 154 5021ft 0kts
26-Apr-20 15:37 34.649526 -112.426757 154 5021ft 0kts
26-Apr-20 15:38 34.649526 -112.426757 154 5021ft 0kts
26-Apr-20 15:39 34.649526 -112.426757 154 5021ft 0kts
26-Apr-20 15:40 34.649526 -112.426757 154 5021ft 0kts
26-Apr-20 15:41 34.650562 -112.425094 40 5014ft 19kts
26-Apr-20 15:42 34.655452 -112.419919 40 4989ft 27kts
26-Apr-20 15:43 34.661827 -112.413203 25 4953ft 23kts
26-Apr-20 15:44 34.662562 -112.411967 124 4950ft 6kts
26-Apr-20 15:45 34.653075 -112.421007 220 5002ft 145kts
26-Apr-20 15:46 34.624317 -112.404210 93 7214ft 196kts
26-Apr-20 15:47 34.605089 -112.342161 136 9368ft 217kts
26-Apr-20 15:47 34.560018 -112.296737 155 10511ft 283kts
26-Apr-20 15:49 34.478658 -112.331233 252 12034ft 336kts
26-Apr-20 15:50 34.454887 -112.447122 265 13265ft 353kts
26-Apr-20 15:50 34.461380 -112.544457 281 15466ft 351kts
26-Apr-20 15:51 34.499475 -112.654879 303 17536ft 365kts
26-Apr-20 15:53 34.590055 -112.750367 330 19854ft 382kts
26-Apr-20 15:53 34.673412 -112.789141 325 21339ft 389kts
26-Apr-20 15:54 34.719235 -112.900002 271 22977ft 386kts
26-Apr-20 15:55 34.723475 -113.030948 271 24597ft 393kts
26-Apr-20 15:56 34.728087 -113.164968 271 26052ft 400kts
26-Apr-20 15:57 34.732681 -113.301155 271 27359ft 407kts
26-Apr-20 15:58 34.737201 -113.439590 271 28576ft 412kts
26-Apr-20 15:59 34.741616 -113.579681 271 29664ft 417kts
26-Apr-20 16:00 34.745918 -113.721430 271 30668ft 422kts
26-Apr-20 16:01 34.750080 -113.864048 271 31787ft 421kts
26-Apr-20 16:02 34.754032 -114.005413 271 32971ft 416kts
26-Apr-20 16:03 34.757791 -114.145261 271 34022ft 412kts
26-Apr-20 16:04 34.761357 -114.283715 271 34915ft 409kts
26-Apr-20 16:05 34.763189 -114.421329 264 35718ft 407kts
26-Apr-20 16:06 34.718514 -114.546660 234 35905ft 413kts
26-Apr-20 16:07 34.646416 -114.655180 234 35883ft 412kts
26-Apr-20 16:08 34.575164 -114.762514 234 34600ft 411kts
26-Apr-20 16:09 34.503317 -114.870488 233 32257ft 410kts
26-Apr-20 16:10 34.432019 -114.977309 232 27970ft 404kts
26-Apr-20 16:11 34.366115 -115.075624 232 26094ft 354kts
26-Apr-20 16:12 34.305320 -115.166291 232 24480ft 341kts
26-Apr-20 16:13 34.246013 -115.254496 232 22922ft 336kts
26-Apr-20 16:14 34.187503 -115.341261 231 21395ft 330kts
26-Apr-20 16:15 34.129998 -115.426345 231 19889ft 325kts
26-Apr-20 16:16 34.073342 -115.509954 231 18353ft 320kts
26-Apr-20 16:17 34.017280 -115.592488 231 16743ft 317kts
26-Apr-20 16:18 33.962058 -115.673601 230 15164ft 313kts
26-Apr-20 16:19 33.914620 -115.759203 261 13568ft 311kts
26-Apr-20 16:20 33.907840 -115.862475 264 12056ft 307kts
26-Apr-20 16:21 33.881760 -115.956651 215 10978ft 313kts
26-Apr-20 16:22 33.814179 -116.015793 235 10884ft 299kts
26-Apr-20 16:23 33.807028 -116.112342 272 9196ft 293kts
26-Apr-20 16:24 33.811382 -116.204972 272 7485ft 265kts
26-Apr-20 16:25 33.814064 -116.290403 258 5753ft 249kts
26-Apr-20 16:26 33.780354 -116.360493 236 3892ft 238kts
26-Apr-20 16:27 33.752951 -116.418628 256 3146ft 164kts
26-Apr-20 16:28 33.774759 -116.459055 325 1639ft 166kts
26-Apr-20 16:29 33.808350 -116.488777 326 715ft 141kts
26-Apr-20 16:30 33.831603 -116.509317 325 438ft 41kts
26-Apr-20 16:31 33.833190 -116.511721 222 445ft 0kts
26-Apr-20 16:32 33.830838 -116.510829 143 437ft 24kts
26-Apr-20 16:33 33.825434 -116.507173 184 421ft 14kts

Navigation Log

Ident Type
Flight plan parsing failed, navigation log unavailable